createdAt,value
2018-05-31T00:00:01.053Z,54.33
2018-05-31T00:01:01.722Z,54.31
2018-05-31T00:02:01.041Z,54.35
2018-05-31T00:03:01.129Z,54.33
2018-05-31T00:04:01.207Z,54.31
2018-05-31T00:05:01.093Z,54.27
2018-05-31T00:06:00.959Z,54.33
2018-05-31T00:07:00.992Z,54.25
2018-05-31T00:08:01.145Z,54.33
2018-05-31T00:09:01.059Z,54.33
2018-05-31T00:10:01.446Z,54.33
2018-05-31T00:11:01.208Z,54.36
2018-05-31T00:12:01.140Z,54.29
2018-05-31T00:13:01.370Z,54.32
2018-05-31T00:14:01.114Z,54.27
2018-05-31T00:15:00.902Z,54.33
2018-05-31T00:16:01.086Z,54.37
2018-05-31T00:17:01.256Z,54.31
2018-05-31T00:18:01.025Z,54.19
2018-05-31T00:19:01.371Z,54.29
2018-05-31T00:20:01.057Z,54.35
2018-05-31T00:21:00.910Z,54.3
2018-05-31T00:22:01.148Z,54.27
2018-05-31T00:23:01.087Z,54.32
2018-05-31T00:24:00.995Z,54.33
2018-05-31T00:25:01.153Z,54.3
2018-05-31T00:26:00.964Z,54.27
2018-05-31T00:27:01.032Z,54.29
2018-05-31T00:28:01.384Z,54.25
2018-05-31T00:29:00.976Z,54.32
2018-05-31T00:30:01.070Z,54.33
2018-05-31T00:31:01.069Z,54.31
2018-05-31T00:32:01.039Z,54.25
2018-05-31T00:33:01.280Z,54.21
2018-05-31T00:34:01.043Z,54.26
2018-05-31T00:35:01.105Z,54.34
2018-05-31T00:36:01.143Z,54.38
2018-05-31T00:37:01.267Z,54.31
2018-05-31T00:38:01.138Z,54.33
2018-05-31T00:39:01.245Z,54.28
2018-05-31T00:40:01.180Z,54.32
2018-05-31T00:41:01.193Z,54.27
2018-05-31T00:42:01.042Z,54.4
2018-05-31T00:43:01.192Z,54.34
2018-05-31T00:44:01.228Z,54.36
2018-05-31T00:45:01.187Z,54.26
2018-05-31T00:46:01.091Z,54.31
2018-05-31T00:47:01.741Z,54.24
2018-05-31T00:48:01.301Z,54.35
2018-05-31T00:49:01.223Z,54.34
2018-05-31T00:50:01.103Z,54.35
2018-05-31T00:51:01.114Z,54.28
2018-05-31T00:52:01.251Z,54.28
2018-05-31T00:53:01.124Z,54.32
2018-05-31T00:54:01.143Z,54.34
2018-05-31T00:55:00.929Z,54.35
2018-05-31T00:56:01.543Z,54.33
2018-05-31T00:57:01.148Z,54.32
2018-05-31T00:58:01.410Z,54.3
2018-05-31T00:59:01.178Z,54.34
2018-05-31T01:00:01.233Z,54.36
2018-05-31T01:01:01.323Z,54.28
2018-05-31T01:02:01.260Z,54.26
2018-05-31T01:03:01.375Z,54.34
2018-05-31T01:04:11.177Z,54.31
2018-05-31T01:05:01.539Z,54.3
2018-05-31T01:06:01.202Z,54.28
2018-05-31T01:07:01.195Z,54.32
2018-05-31T01:08:01.207Z,54.3
2018-05-31T01:09:01.218Z,54.34
2018-05-31T01:10:01.223Z,54.39
2018-05-31T01:11:01.176Z,54.34
2018-05-31T01:12:01.418Z,54.28
2018-05-31T01:13:01.229Z,54.29
2018-05-31T01:14:01.452Z,54.31
2018-05-31T01:15:01.250Z,54.31
2018-05-31T01:16:01.282Z,54.32
2018-05-31T01:17:01.240Z,54.3
2018-05-31T01:18:01.196Z,54.31
2018-05-31T01:19:01.256Z,54.33
2018-05-31T01:20:01.272Z,54.32
2018-05-31T01:21:01.225Z,54.29
2018-05-31T01:22:01.285Z,54.32
2018-05-31T01:23:01.427Z,54.21
2018-05-31T01:24:01.236Z,54.32
2018-05-31T01:25:01.307Z,54.39
2018-05-31T01:26:01.308Z,54.29
2018-05-31T01:27:00.890Z,54.36
2018-05-31T01:28:01.342Z,54.33
2018-05-31T01:29:00.863Z,54.36
2018-05-31T01:30:01.290Z,54.34
2018-05-31T01:31:01.289Z,54.3
2018-05-31T01:32:01.169Z,54.26
2018-05-31T01:33:01.100Z,54.34
2018-05-31T01:34:01.406Z,54.4
2018-05-31T01:35:01.098Z,54.33
2018-05-31T01:36:01.120Z,54.3
2018-05-31T01:37:01.025Z,54.37
2018-05-31T01:38:00.899Z,54.29
2018-05-31T01:39:01.159Z,54.33
2018-05-31T01:40:01.225Z,54.33
2018-05-31T01:41:00.983Z,54.26
2018-05-31T01:42:01.734Z,54.31
2018-05-31T01:43:01.454Z,54.36
2018-05-31T01:44:01.164Z,54.33
2018-05-31T01:45:01.263Z,54.33
2018-05-31T01:46:01.271Z,54.36
2018-05-31T01:47:01.425Z,54.32
2018-05-31T01:48:00.955Z,54.35
2018-05-31T01:49:00.972Z,54.36
2018-05-31T01:50:00.987Z,54.32
2018-05-31T01:51:01.823Z,54.34
2018-05-31T01:52:00.880Z,54.32
2018-05-31T01:53:01.063Z,54.32
2018-05-31T01:54:01.264Z,54.29
2018-05-31T01:55:00.898Z,54.35
2018-05-31T01:56:01.033Z,54.35
2018-05-31T01:57:01.320Z,54.32
2018-05-31T01:58:00.918Z,54.33
2018-05-31T01:59:01.340Z,54.33
2018-05-31T02:00:01.723Z,54.23
2018-05-31T02:01:01.355Z,54.33
2018-05-31T02:02:01.340Z,54.25
2018-05-31T02:03:01.002Z,54.32
2018-05-31T02:04:01.157Z,54.36
2018-05-31T02:05:01.060Z,54.31
2018-05-31T02:06:00.985Z,54.3
2018-05-31T02:07:01.094Z,54.31
2018-05-31T02:08:01.176Z,54.31
2018-05-31T02:09:01.353Z,54.25
2018-05-31T02:10:01.032Z,54.33
2018-05-31T02:11:00.977Z,54.36
2018-05-31T02:12:01.096Z,54.25
2018-05-31T02:13:01.015Z,54.31
2018-05-31T02:14:01.164Z,54.28
2018-05-31T02:15:01.002Z,54.34
2018-05-31T02:16:01.061Z,54.35
2018-05-31T02:17:01.393Z,54.33
2018-05-31T02:18:01.959Z,54.27
2018-05-31T02:19:01.064Z,54.28
2018-05-31T02:20:00.867Z,54.34
2018-05-31T02:21:00.986Z,54.24
2018-05-31T02:22:00.861Z,54.3
2018-05-31T02:23:00.970Z,54.28
2018-05-31T02:24:01.067Z,54.32
2018-05-31T02:25:01.022Z,54.32
2018-05-31T02:26:00.970Z,54.27
2018-05-31T02:27:01.385Z,54.26
2018-05-31T02:28:01.014Z,54.29
2018-05-31T02:29:00.855Z,54.31
2018-05-31T02:30:01.207Z,54.35
2018-05-31T02:31:01.148Z,54.31
2018-05-31T02:32:00.946Z,54.32
2018-05-31T02:33:00.964Z,54.34
2018-05-31T02:34:01.115Z,54.32
2018-05-31T02:35:01.114Z,54.31
2018-05-31T02:36:01.469Z,54.31
2018-05-31T02:37:00.891Z,54.27
2018-05-31T02:38:00.892Z,54.29
2018-05-31T02:39:00.947Z,54.32
2018-05-31T02:40:01.045Z,54.39
2018-05-31T02:41:00.974Z,54.35
2018-05-31T02:42:00.974Z,54.28
2018-05-31T02:43:01.132Z,54.29
2018-05-31T02:44:01.086Z,54.27
2018-05-31T02:45:01.138Z,54.33
2018-05-31T02:46:00.960Z,54.34
2018-05-31T02:47:01.036Z,54.38
2018-05-31T02:48:01.145Z,54.37
2018-05-31T02:49:01.179Z,54.35
2018-05-31T02:50:01.014Z,54.32
2018-05-31T02:51:01.036Z,54.27
2018-05-31T02:52:01.108Z,54.35
2018-05-31T02:53:01.138Z,54.29
2018-05-31T02:54:00.940Z,54.27
2018-05-31T02:55:00.941Z,54.26
2018-05-31T02:56:32.984Z,54.37
2018-05-31T02:57:00.955Z,54.34
2018-05-31T02:58:01.008Z,54.27
2018-05-31T02:59:01.130Z,54.35
2018-05-31T03:00:00.987Z,54.25
2018-05-31T03:01:00.977Z,54.31
2018-05-31T03:02:01.132Z,54.39
2018-05-31T03:03:01.141Z,54.38
2018-05-31T03:04:01.946Z,54.33
2018-05-31T03:05:01.008Z,54.35
2018-05-31T03:06:01.002Z,54.17
2018-05-31T03:07:01.183Z,54.31
2018-05-31T03:08:01.022Z,54.28
2018-05-31T03:09:01.098Z,54.22
2018-05-31T03:10:01.035Z,54.33
2018-05-31T03:11:01.051Z,54.32
2018-05-31T03:12:01.035Z,54.29
2018-05-31T03:13:01.124Z,54.32
2018-05-31T03:14:01.052Z,54.26
2018-05-31T03:15:01.080Z,54.33
2018-05-31T03:16:01.163Z,54.3
2018-05-31T03:17:01.194Z,54.31
2018-05-31T03:18:01.083Z,54.28
2018-05-31T03:19:01.190Z,54.34
2018-05-31T03:20:01.377Z,54.32
2018-05-31T03:21:00.835Z,54.29
2018-05-31T03:22:01.664Z,54.33
2018-05-31T03:23:01.119Z,54.32
2018-05-31T03:24:01.117Z,54.24
2018-05-31T03:25:01.264Z,54.3
2018-05-31T03:26:01.207Z,54.28
2018-05-31T03:27:01.124Z,54.34
2018-05-31T03:28:01.174Z,54.32
2018-05-31T03:29:01.251Z,54.32
2018-05-31T03:30:01.130Z,54.3
2018-05-31T03:31:01.137Z,54.32
2018-05-31T03:32:01.153Z,54.34
2018-05-31T03:33:01.146Z,54.26
2018-05-31T03:34:01.187Z,54.32
2018-05-31T03:35:01.170Z,54.3
2018-05-31T03:36:01.171Z,54.31
2018-05-31T03:37:01.200Z,54.31
2018-05-31T03:38:01.199Z,54.36
2018-05-31T03:39:01.202Z,54.28
2018-05-31T03:40:01.220Z,54.39
2018-05-31T03:41:01.186Z,54.35
2018-05-31T03:42:01.214Z,54.32
2018-05-31T03:43:01.227Z,54.38
2018-05-31T03:44:01.182Z,54.32
2018-05-31T03:45:01.254Z,54.32
2018-05-31T03:46:01.194Z,54.35
2018-05-31T03:47:01.237Z,54.29
2018-05-31T03:48:01.016Z,54.29
2018-05-31T03:49:01.221Z,54.37
2018-05-31T03:50:00.885Z,54.29
2018-05-31T03:51:01.232Z,54.31
2018-05-31T03:52:01.285Z,54.32
2018-05-31T03:53:00.896Z,54.29
2018-05-31T03:54:01.301Z,54.29
2018-05-31T03:55:01.313Z,54.38
2018-05-31T03:56:00.892Z,54.36
2018-05-31T03:57:00.912Z,54.3
2018-05-31T03:58:01.077Z,54.34
2018-05-31T03:59:01.035Z,54.3
2018-05-31T04:00:01.089Z,54.36
2018-05-31T04:01:01.340Z,54.33
2018-05-31T04:02:01.316Z,54.35
2018-05-31T04:03:01.152Z,54.33
2018-05-31T04:04:01.167Z,54.31
2018-05-31T04:05:00.976Z,54.28
2018-05-31T04:06:10.896Z,54.29
2018-05-31T04:07:01.354Z,54.3
2018-05-31T04:08:00.960Z,54.31
2018-05-31T04:09:01.135Z,54.29
2018-05-31T04:10:01.174Z,54.33
2018-05-31T04:11:01.384Z,54.32
2018-05-31T04:12:00.969Z,54.23
2018-05-31T04:13:01.401Z,54.32
2018-05-31T04:14:01.162Z,54.25
2018-05-31T04:15:01.057Z,54.22
2018-05-31T04:16:00.960Z,54.29
2018-05-31T04:17:01.161Z,54.31
2018-05-31T04:18:00.863Z,54.3
2018-05-31T04:19:00.946Z,54.39
2018-05-31T04:20:00.816Z,54.35
2018-05-31T04:21:00.984Z,54.3
2018-05-31T04:22:00.959Z,54.37
2018-05-31T04:23:01.282Z,54.36
2018-05-31T04:24:01.289Z,54.31
2018-05-31T04:25:01.455Z,54.32
2018-05-31T04:26:00.937Z,54.33
2018-05-31T04:27:00.832Z,54.3
2018-05-31T04:28:00.941Z,54.36
2018-05-31T04:29:00.886Z,54.34
2018-05-31T04:30:00.997Z,54.34
2018-05-31T04:31:01.068Z,54.33
2018-05-31T04:32:01.014Z,54.26
2018-05-31T04:33:00.915Z,54.29
2018-05-31T04:34:01.005Z,54.29
2018-05-31T04:35:01.036Z,54.38
2018-05-31T04:36:00.981Z,54.28
2018-05-31T04:37:00.949Z,54.35
2018-05-31T04:38:10.943Z,54.27
2018-05-31T04:39:00.903Z,54.38
2018-05-31T04:40:01.086Z,54.29
2018-05-31T04:41:00.945Z,54.3
2018-05-31T04:42:01.041Z,54.32
2018-05-31T04:43:01.033Z,54.39
2018-05-31T04:44:01.088Z,54.39
2018-05-31T04:45:01.068Z,54.35
2018-05-31T04:46:00.974Z,54.36
2018-05-31T04:47:01.034Z,54.32
2018-05-31T04:48:00.910Z,54.35
2018-05-31T04:49:00.988Z,54.33
2018-05-31T04:50:01.228Z,54.33
2018-05-31T04:51:01.383Z,54.32
2018-05-31T04:52:00.822Z,54.38
2018-05-31T04:53:01.014Z,54.35
2018-05-31T04:54:01.077Z,54.39
2018-05-31T04:55:00.920Z,54.37
2018-05-31T04:56:01.002Z,54.36
2018-05-31T04:57:00.971Z,54.35
2018-05-31T04:58:01.096Z,54.36
2018-05-31T04:59:00.985Z,54.37
2018-05-31T05:00:01.436Z,54.3
2018-05-31T05:01:00.844Z,54.37
2018-05-31T05:02:00.877Z,54.34
2018-05-31T05:03:01.191Z,54.37
2018-05-31T05:04:01.040Z,54.36
2018-05-31T05:05:01.027Z,54.38
2018-05-31T05:06:01.041Z,54.34
2018-05-31T05:07:01.144Z,54.35
2018-05-31T05:08:01.343Z,54.31
2018-05-31T05:09:01.358Z,54.32
2018-05-31T05:10:00.873Z,54.36
2018-05-31T05:11:00.884Z,54.4
2018-05-31T05:12:01.066Z,54.33
2018-05-31T05:13:01.046Z,54.37
2018-05-31T05:14:01.016Z,54.32
2018-05-31T05:15:00.936Z,54.38
2018-05-31T05:16:00.866Z,54.37
2018-05-31T05:17:01.037Z,54.33
2018-05-31T05:18:01.369Z,54.29
2018-05-31T05:19:01.037Z,54.35
2018-05-31T05:20:00.985Z,54.41
2018-05-31T05:21:00.886Z,54.29
2018-05-31T05:22:00.952Z,54.35
2018-05-31T05:23:00.928Z,54.36
2018-05-31T05:24:01.142Z,54.33
2018-05-31T05:25:01.197Z,54.3
2018-05-31T05:26:00.929Z,54.35
2018-05-31T05:27:01.207Z,54.37
2018-05-31T05:28:00.992Z,54.4
2018-05-31T05:29:01.066Z,54.28
2018-05-31T05:30:00.962Z,54.29
2018-05-31T05:31:01.095Z,54.3
2018-05-31T05:32:01.053Z,54.35
2018-05-31T05:33:01.001Z,54.41
2018-05-31T05:34:01.027Z,54.39
2018-05-31T05:35:01.198Z,54.31
2018-05-31T05:36:01.490Z,54.29
2018-05-31T05:37:01.123Z,54.33
2018-05-31T05:38:00.975Z,54.35
2018-05-31T05:39:00.983Z,54.4
2018-05-31T05:40:01.083Z,54.28
2018-05-31T05:41:01.066Z,54.35
2018-05-31T05:42:01.041Z,54.35
2018-05-31T05:43:01.022Z,54.32
2018-05-31T05:44:01.140Z,54.27
2018-05-31T05:45:01.475Z,54.31
2018-05-31T05:46:01.103Z,54.33
2018-05-31T05:47:01.162Z,54.33
2018-05-31T05:48:01.052Z,54.37
2018-05-31T05:49:01.375Z,54.33
2018-05-31T05:50:01.114Z,54.4
2018-05-31T05:51:01.072Z,54.31
2018-05-31T05:52:01.138Z,54.32
2018-05-31T05:53:01.086Z,54.29
2018-05-31T05:54:01.593Z,54.29
2018-05-31T05:55:01.164Z,54.38
2018-05-31T05:56:01.107Z,54.31
2018-05-31T05:57:01.107Z,54.25
2018-05-31T05:58:01.265Z,54.36
2018-05-31T05:59:01.203Z,54.29
2018-05-31T06:00:01.180Z,54.33
2018-05-31T06:01:01.120Z,54.31
2018-05-31T06:02:01.123Z,54.42
2018-05-31T06:03:01.683Z,54.35
2018-05-31T06:04:01.131Z,54.34
2018-05-31T06:05:01.143Z,54.28
2018-05-31T06:06:01.127Z,54.39
2018-05-31T06:07:01.189Z,54.32
2018-05-31T06:08:01.111Z,54.39
2018-05-31T06:09:01.158Z,54.32
2018-05-31T06:10:01.198Z,54.35
2018-05-31T06:11:01.222Z,54.33
2018-05-31T06:12:01.749Z,54.29
2018-05-31T06:13:01.328Z,54.32
2018-05-31T06:14:01.366Z,54.24
2018-05-31T06:15:01.220Z,54.36
2018-05-31T06:16:01.171Z,54.33
2018-05-31T06:17:00.877Z,54.36
2018-05-31T06:18:01.171Z,54.34
2018-05-31T06:19:01.012Z,54.32
2018-05-31T06:20:00.967Z,54.27
2018-05-31T06:21:00.789Z,54.27
2018-05-31T06:22:01.200Z,54.33
2018-05-31T06:23:01.243Z,54.29
2018-05-31T06:24:01.261Z,54.26
2018-05-31T06:25:01.434Z,54.36
2018-05-31T06:26:00.917Z,54.31
2018-05-31T06:27:00.858Z,54.29
2018-05-31T06:28:01.082Z,54.29
2018-05-31T06:29:01.314Z,54.27
2018-05-31T06:30:00.844Z,54.26
2018-05-31T06:31:00.978Z,54.31
2018-05-31T06:32:01.056Z,54.32
2018-05-31T06:33:01.130Z,54.27
2018-05-31T06:34:01.116Z,54.36
2018-05-31T06:35:01.291Z,54.22
2018-05-31T06:36:00.877Z,54.27
2018-05-31T06:37:01.311Z,54.33
2018-05-31T06:38:00.966Z,54.27
2018-05-31T06:39:00.917Z,54.25
2018-05-31T06:40:01.183Z,54.3
2018-05-31T06:41:00.888Z,54.32
2018-05-31T06:42:01.087Z,54.25
2018-05-31T06:43:01.367Z,54.26
2018-05-31T06:44:00.918Z,54.3
2018-05-31T06:45:00.938Z,54.25
2018-05-31T06:46:01.380Z,54.32
2018-05-31T06:47:00.968Z,54.26
2018-05-31T06:48:01.218Z,54.29
2018-05-31T06:49:00.906Z,54.33
2018-05-31T06:50:01.130Z,54.25
2018-05-31T06:51:00.967Z,54.33
2018-05-31T06:52:00.904Z,54.31
2018-05-31T06:53:00.852Z,54.22
2018-05-31T06:54:00.802Z,54.32
2018-05-31T06:55:00.948Z,54.28
2018-05-31T06:56:00.973Z,54.32
2018-05-31T06:57:00.821Z,54.24
2018-05-31T06:58:00.918Z,54.27
2018-05-31T06:59:00.910Z,54.28
2018-05-31T07:00:00.966Z,54.27
2018-05-31T07:01:01.037Z,54.24
2018-05-31T07:02:01.041Z,54.35
2018-05-31T07:03:00.774Z,54.21
2018-05-31T07:04:01.057Z,54.22
2018-05-31T07:05:01.069Z,54.25
2018-05-31T07:06:00.916Z,54.29
2018-05-31T07:07:01.053Z,54.27
2018-05-31T07:08:00.783Z,54.29
2018-05-31T07:09:00.771Z,54.28
2018-05-31T07:10:01.126Z,54.25
2018-05-31T07:11:01.331Z,54.28
2018-05-31T07:12:00.804Z,54.27
2018-05-31T07:13:00.962Z,54.24
2018-05-31T07:14:00.910Z,54.25
2018-05-31T07:15:00.960Z,54.25
2018-05-31T07:16:00.989Z,54.27
2018-05-31T07:17:01.103Z,54.32
2018-05-31T07:18:01.137Z,54.22
2018-05-31T07:19:01.065Z,54.26
2018-05-31T07:20:00.813Z,54.29
2018-05-31T07:21:00.842Z,54.22
2018-05-31T07:22:00.899Z,54.31
2018-05-31T07:23:00.825Z,54.25
2018-05-31T07:24:01.408Z,54.09
2018-05-31T07:25:00.955Z,54.2
2018-05-31T07:26:00.909Z,54.29
2018-05-31T07:27:00.756Z,54.32
2018-05-31T07:28:00.850Z,54.3
2018-05-31T07:29:01.153Z,54.25
2018-05-31T07:30:01.046Z,54.29
2018-05-31T07:31:00.886Z,54.31
2018-05-31T07:32:00.984Z,54.28
2018-05-31T07:33:00.917Z,54.22
2018-05-31T07:34:00.904Z,54.25
2018-05-31T07:35:00.980Z,54.25
2018-05-31T07:36:01.475Z,54.21
2018-05-31T07:37:01.166Z,54.34
2018-05-31T07:38:00.983Z,54.29
2018-05-31T07:39:00.765Z,54.24
2018-05-31T07:40:01.066Z,54.28
2018-05-31T07:41:01.010Z,54.25
2018-05-31T07:42:01.126Z,54.29
2018-05-31T07:43:01.037Z,54.26
2018-05-31T07:44:01.084Z,54.17
2018-05-31T07:45:01.280Z,54.29
2018-05-31T07:46:00.806Z,54.3
2018-05-31T07:47:00.918Z,54.25
2018-05-31T07:48:00.875Z,54.21
2018-05-31T07:49:01.061Z,54.24
2018-05-31T07:50:00.852Z,54.2
2018-05-31T07:51:00.955Z,54.27
2018-05-31T07:52:00.967Z,54.27
2018-05-31T07:53:00.945Z,54.15
2018-05-31T07:54:00.920Z,54.18
2018-05-31T07:55:00.870Z,54.24
2018-05-31T07:56:00.879Z,54.21
2018-05-31T07:57:01.144Z,54.21
2018-05-31T07:58:01.238Z,54.21
2018-05-31T07:59:00.892Z,54.22
2018-05-31T08:00:00.898Z,54.25
2018-05-31T08:01:00.951Z,54.27
2018-05-31T08:02:01.052Z,54.18
2018-05-31T08:03:00.991Z,54.17
2018-05-31T08:04:00.988Z,54.2
2018-05-31T08:05:00.918Z,54.19
2018-05-31T08:06:01.191Z,54.28
2018-05-31T08:07:01.039Z,54.26
2018-05-31T08:08:00.892Z,54.23
2018-05-31T08:09:01.004Z,54.16
2018-05-31T08:10:01.079Z,54.21
2018-05-31T08:11:00.961Z,54.25
2018-05-31T08:12:01.139Z,54.21
2018-05-31T08:13:00.979Z,54.22
2018-05-31T08:14:00.976Z,54.21
2018-05-31T08:15:00.976Z,54.22
2018-05-31T08:16:00.976Z,54.25
2018-05-31T08:17:00.975Z,54.21
2018-05-31T08:18:00.979Z,54.22
2018-05-31T08:19:00.987Z,54.19
2018-05-31T08:20:00.992Z,54.25
2018-05-31T08:21:01.152Z,54.17
2018-05-31T08:22:01.192Z,54.2
2018-05-31T08:23:01.123Z,54.17
2018-05-31T08:24:01.054Z,54.22
2018-05-31T08:25:01.161Z,54.23
2018-05-31T08:26:01.046Z,54.22
2018-05-31T08:27:01.061Z,54.18
2018-05-31T08:28:01.179Z,54.25
2018-05-31T08:29:01.062Z,54.2
2018-05-31T08:30:01.065Z,54.29
2018-05-31T08:31:01.089Z,54.19
2018-05-31T08:32:01.033Z,54.21
2018-05-31T08:33:01.085Z,54.17
2018-05-31T08:34:01.251Z,54.21
2018-05-31T08:35:01.108Z,54.17
2018-05-31T08:36:01.108Z,54.18
2018-05-31T08:37:01.094Z,54.22
2018-05-31T08:38:01.134Z,54.16
2018-05-31T08:39:01.102Z,54.17
2018-05-31T08:40:01.102Z,54.2
2018-05-31T08:41:01.159Z,54.17
2018-05-31T08:42:01.164Z,54.17
2018-05-31T08:43:01.168Z,54.2
2018-05-31T08:44:01.163Z,54.16
2018-05-31T08:45:01.128Z,54.17
2018-05-31T08:46:01.179Z,54.17
2018-05-31T08:47:01.193Z,54.13
2018-05-31T08:48:00.928Z,54.15
2018-05-31T08:49:01.214Z,54.13
2018-05-31T08:50:00.816Z,54.2
2018-05-31T08:51:01.436Z,54.19
2018-05-31T08:52:01.230Z,54.1
2018-05-31T08:53:01.234Z,54.13
2018-05-31T08:54:01.226Z,54.17
2018-05-31T08:55:01.042Z,54.16
2018-05-31T08:56:01.000Z,54.21
2018-05-31T08:57:00.826Z,54.29
2018-05-31T08:58:01.228Z,54.18
2018-05-31T08:59:00.809Z,54.18
2018-05-31T09:00:01.288Z,54.22
2018-05-31T09:01:00.775Z,54.21
2018-05-31T09:02:01.255Z,54.22
2018-05-31T09:03:01.102Z,54.21
2018-05-31T09:04:01.091Z,54.21
2018-05-31T09:05:01.033Z,54.24
2018-05-31T09:06:00.792Z,54.24
2018-05-31T09:07:01.330Z,54.16
2018-05-31T09:08:01.037Z,54.8
2018-05-31T09:09:01.307Z,54.86
2018-05-31T09:10:01.353Z,54.64
2018-05-31T09:11:00.860Z,54.73
2018-05-31T09:12:00.840Z,54.76
2018-05-31T09:13:00.931Z,54.73
2018-05-31T09:14:01.077Z,54.7
2018-05-31T09:15:00.782Z,54.62
2018-05-31T09:16:01.153Z,54.82
2018-05-31T09:17:01.593Z,54.84
2018-05-31T09:18:00.957Z,54.78
2018-05-31T09:19:00.947Z,54.79
2018-05-31T09:20:00.939Z,54.75
2018-05-31T09:21:01.147Z,54.67
2018-05-31T09:22:01.377Z,54.84
2018-05-31T09:23:00.853Z,54.65
2018-05-31T09:24:01.184Z,54.72
2018-05-31T09:25:00.917Z,54.86
2018-05-31T09:26:00.740Z,54.74
2018-05-31T09:27:00.970Z,54.63
2018-05-31T09:28:00.875Z,54.72
2018-05-31T09:29:01.010Z,54.7
2018-05-31T09:30:00.874Z,54.65
2018-05-31T09:31:01.028Z,54.54
2018-05-31T09:32:00.845Z,54.69
2018-05-31T09:33:00.724Z,54.65
2018-05-31T09:34:00.969Z,54.61
2018-05-31T09:35:01.020Z,54.71
2018-05-31T09:36:00.762Z,54.63
2018-05-31T09:37:00.715Z,54.58
2018-05-31T09:38:01.052Z,54.52
2018-05-31T09:39:00.788Z,54.68
2018-05-31T09:40:00.760Z,54.67
2018-05-31T09:41:00.992Z,54.62
2018-05-31T09:42:00.833Z,54.75
2018-05-31T09:43:00.895Z,54.75
2018-05-31T09:44:00.842Z,54.55
2018-05-31T09:45:00.949Z,54.65
2018-05-31T09:46:00.873Z,54.77
2018-05-31T09:47:01.105Z,54.65
2018-05-31T09:48:00.854Z,54.77
2018-05-31T09:49:00.927Z,54.87
2018-05-31T09:50:01.156Z,54.58
2018-05-31T09:51:01.075Z,54.6
2018-05-31T09:52:00.946Z,54.74
2018-05-31T09:53:01.059Z,54.79
2018-05-31T09:54:01.026Z,54.81
2018-05-31T09:55:00.819Z,54.74
2018-05-31T09:56:01.000Z,54.78
2018-05-31T09:57:00.831Z,54.84
2018-05-31T09:58:00.959Z,54.81
2018-05-31T09:59:00.862Z,54.7
2018-05-31T10:00:00.868Z,54.91
2018-05-31T10:01:00.958Z,54.75
2018-05-31T10:02:01.095Z,54.78
2018-05-31T10:03:00.746Z,54.81
2018-05-31T10:04:00.859Z,54.67
2018-05-31T10:05:00.925Z,54.81
2018-05-31T10:06:01.003Z,54.7
2018-05-31T10:07:00.859Z,54.6
2018-05-31T10:08:00.819Z,54.62
2018-05-31T10:09:00.763Z,54.97
2018-05-31T10:10:00.762Z,54.97
2018-05-31T10:11:00.847Z,54.41
2018-05-31T10:12:00.956Z,54.53
2018-05-31T10:13:00.778Z,54.5
2018-05-31T10:14:01.017Z,54.58
2018-05-31T10:15:00.822Z,54.58
2018-05-31T10:16:00.895Z,54.53
2018-05-31T10:17:00.883Z,54.46
2018-05-31T10:18:01.023Z,55.04
2018-05-31T10:19:00.887Z,55.02
2018-05-31T10:20:00.823Z,54.96
2018-05-31T10:21:00.853Z,55.03
2018-05-31T10:22:00.772Z,54.99
2018-05-31T10:23:00.994Z,54.9
2018-05-31T10:24:00.829Z,54.94
2018-05-31T10:25:00.966Z,55.01
2018-05-31T10:26:01.013Z,54.89
2018-05-31T10:27:00.905Z,54.88
2018-05-31T10:28:00.943Z,54.87
2018-05-31T10:29:00.913Z,54.82
2018-05-31T10:30:01.017Z,54.78
2018-05-31T10:31:01.116Z,54.83
2018-05-31T10:32:01.000Z,54.87
2018-05-31T10:33:01.782Z,54.78
2018-05-31T10:34:01.020Z,54.89
2018-05-31T10:35:00.948Z,54.97
2018-05-31T10:36:01.111Z,54.67
2018-05-31T10:37:01.867Z,54.72
2018-05-31T10:38:01.213Z,54.57
2018-05-31T10:39:00.979Z,54.58
2018-05-31T10:40:01.140Z,54.86
2018-05-31T10:41:01.055Z,54.99
2018-05-31T10:42:01.149Z,55.13
2018-05-31T10:43:01.234Z,55.03
2018-05-31T10:44:01.000Z,55.03
2018-05-31T10:45:00.935Z,54.84
2018-05-31T10:46:01.115Z,55.23
2018-05-31T10:47:00.974Z,55.29
2018-05-31T10:48:00.987Z,56.56
2018-05-31T10:49:00.930Z,55.39
2018-05-31T10:50:01.178Z,55.2
2018-05-31T10:51:00.965Z,55.23
2018-05-31T10:52:01.073Z,55.1
2018-05-31T10:53:01.236Z,54.95
2018-05-31T10:54:01.048Z,55.21
2018-05-31T10:55:01.017Z,55.01
2018-05-31T10:56:01.110Z,55.12
2018-05-31T10:57:01.204Z,55.06
2018-05-31T10:58:01.126Z,55.09
2018-05-31T10:59:01.005Z,55.11
2018-05-31T11:00:01.246Z,55.08
2018-05-31T11:01:00.975Z,55.11
2018-05-31T11:02:01.065Z,55.02
2018-05-31T11:03:01.035Z,55.03
2018-05-31T11:04:01.019Z,54.94
2018-05-31T11:05:01.004Z,55.06
2018-05-31T11:06:01.005Z,54.93
2018-05-31T11:07:01.198Z,55.01
2018-05-31T11:08:01.049Z,54.9
2018-05-31T11:09:01.097Z,55.08
2018-05-31T11:10:01.169Z,55.08
2018-05-31T11:11:01.025Z,54.76
2018-05-31T11:12:01.123Z,54.93
2018-05-31T11:13:01.038Z,54.94
2018-05-31T11:14:01.007Z,54.91
2018-05-31T11:15:01.252Z,54.95
2018-05-31T11:16:01.061Z,54.82
2018-05-31T11:17:01.067Z,54.81
2018-05-31T11:18:01.202Z,54.83
2018-05-31T11:19:01.069Z,54.84
2018-05-31T11:20:00.887Z,54.99
2018-05-31T11:21:01.092Z,54.86
2018-05-31T11:22:01.100Z,55.01
2018-05-31T11:23:01.064Z,54.98
2018-05-31T11:24:01.101Z,54.99
2018-05-31T11:25:01.076Z,54.84
2018-05-31T11:26:01.105Z,54.84
2018-05-31T11:27:01.248Z,54.88
2018-05-31T11:28:00.906Z,55.01
2018-05-31T11:29:00.875Z,54.95
2018-05-31T11:30:01.214Z,55.02
2018-05-31T11:31:00.924Z,55
2018-05-31T11:32:00.910Z,54.98
2018-05-31T11:33:00.896Z,54.98
2018-05-31T11:34:00.912Z,55.11
2018-05-31T11:35:01.159Z,55.04
2018-05-31T11:36:00.953Z,54.95
2018-05-31T11:37:10.941Z,54.86
2018-05-31T11:38:01.156Z,55.07
2018-05-31T11:39:01.201Z,55.03
2018-05-31T11:40:01.208Z,54.84
2018-05-31T11:41:01.205Z,54.74
2018-05-31T11:42:01.223Z,54.74
2018-05-31T11:43:00.989Z,54.76
2018-05-31T11:44:01.228Z,54.67
2018-05-31T11:45:01.241Z,54.76
2018-05-31T11:46:01.011Z,54.7
2018-05-31T11:47:00.978Z,54.67
2018-05-31T11:48:00.821Z,54.71
2018-05-31T11:49:01.259Z,54.85
2018-05-31T11:50:01.060Z,54.74
2018-05-31T11:51:00.741Z,54.75
2018-05-31T11:52:00.709Z,54.76
2018-05-31T11:53:00.874Z,54.86
2018-05-31T11:54:00.843Z,54.81
2018-05-31T11:55:00.880Z,54.87
2018-05-31T11:56:01.072Z,54.72
2018-05-31T11:57:01.257Z,54.73
2018-05-31T11:58:00.846Z,54.91
2018-05-31T11:59:00.707Z,54.64
2018-05-31T12:00:00.754Z,54.73
2018-05-31T12:01:01.302Z,54.72
2018-05-31T12:02:00.778Z,54.65
2018-05-31T12:03:01.134Z,54.58
2018-05-31T12:04:00.749Z,54.62
2018-05-31T12:05:01.283Z,54.57
2018-05-31T12:06:00.731Z,54.57
2018-05-31T12:07:01.130Z,54.63
2018-05-31T12:08:00.916Z,54.72
2018-05-31T12:09:01.065Z,54.6
2018-05-31T12:10:00.896Z,54.6
2018-05-31T12:11:00.696Z,54.51
2018-05-31T12:12:00.930Z,54.52
2018-05-31T12:13:00.849Z,54.52
2018-05-31T12:14:00.935Z,54.53
2018-05-31T12:15:00.849Z,54.5
2018-05-31T12:16:00.687Z,54.4
2018-05-31T12:17:01.198Z,54.5
2018-05-31T12:18:00.813Z,54.48
2018-05-31T12:19:00.840Z,54.44
2018-05-31T12:20:00.769Z,54.47
2018-05-31T12:21:00.862Z,54.49
2018-05-31T12:22:01.217Z,54.58
2018-05-31T12:23:00.864Z,54.56
2018-05-31T12:24:00.763Z,54.52
2018-05-31T12:25:00.770Z,54.58
2018-05-31T12:26:01.036Z,54.61
2018-05-31T12:27:00.661Z,54.5
2018-05-31T12:28:01.030Z,54.57
2018-05-31T12:29:00.928Z,54.53
2018-05-31T12:30:00.759Z,54.58
2018-05-31T12:31:00.865Z,54.52
2018-05-31T12:32:00.854Z,54.51
2018-05-31T12:33:00.929Z,54.42
2018-05-31T12:34:00.994Z,54.52
2018-05-31T12:35:00.937Z,54.48
2018-05-31T12:36:00.732Z,54.46
2018-05-31T12:37:00.839Z,54.43
2018-05-31T12:38:00.934Z,54.49
2018-05-31T12:39:00.884Z,54.47
2018-05-31T12:40:00.878Z,54.46
2018-05-31T12:41:01.088Z,54.43
2018-05-31T12:42:00.821Z,54.47
2018-05-31T12:43:00.866Z,54.44
2018-05-31T12:44:00.949Z,54.33
2018-05-31T12:45:00.710Z,54.47
2018-05-31T12:46:00.852Z,54.44
2018-05-31T12:47:00.778Z,54.42
2018-05-31T12:48:00.854Z,54.38
2018-05-31T12:49:00.910Z,54.33
2018-05-31T12:50:00.817Z,54.32
2018-05-31T12:51:00.857Z,54.31
2018-05-31T12:52:00.772Z,54.35
2018-05-31T12:53:00.744Z,54.3
2018-05-31T12:54:00.794Z,54.28